createdAt,value
2022-12-01T00:02:08.336Z,99948.23
2022-12-01T00:05:11.070Z,99949.48
2022-12-01T00:08:13.721Z,99947.82
2022-12-01T00:11:16.363Z,99947.98
2022-12-01T00:14:18.977Z,99945.98
2022-12-01T00:17:21.992Z,99942.68
2022-12-01T00:20:24.670Z,99944.75
2022-12-01T00:23:27.297Z,99942.83
2022-12-01T00:26:30.345Z,99943.98
2022-12-01T00:29:32.950Z,99947.40
2022-12-01T00:32:35.618Z,99950.02
2022-12-01T00:35:38.260Z,99954.52
2022-12-01T00:38:41.074Z,99953.95
2022-12-01T00:41:43.758Z,99955.92
2022-12-01T00:44:46.909Z,99956.96
2022-12-01T00:47:49.531Z,99953.17
2022-12-01T00:50:53.490Z,99950.65
2022-12-01T00:53:56.132Z,99954.65
2022-12-01T00:56:58.800Z,99952.91
2022-12-01T01:00:01.461Z,99948.84
2022-12-01T01:03:04.941Z,99947.45
2022-12-01T01:06:10.479Z,99939.63
2022-12-01T01:09:13.908Z,99934.56
2022-12-01T01:12:16.548Z,99925.52
2022-12-01T01:15:19.407Z,99920.09
2022-12-01T01:18:22.062Z,99920.39
2022-12-01T01:21:26.063Z,99924.21
2022-12-01T01:24:28.720Z,99919.23
2022-12-01T01:27:31.365Z,99919.41
2022-12-01T01:30:34.046Z,99918.70
2022-12-01T01:33:37.033Z,99917.79
2022-12-01T01:36:39.656Z,99914.42
2022-12-01T01:39:42.295Z,99913.41
2022-12-01T01:42:44.940Z,99916.61
2022-12-01T01:45:47.682Z,99922.02
2022-12-01T01:48:54.009Z,99917.45
2022-12-01T01:51:57.251Z,99914.95
2022-12-01T01:55:00.620Z,99914.30
2022-12-01T01:58:07.644Z,99909.34
2022-12-01T02:01:10.972Z,99907.63
2022-12-01T02:04:15.732Z,99910.92
2022-12-01T02:07:20.010Z,99909.83
2022-12-01T02:10:31.535Z,99905.71
2022-12-01T02:13:40.519Z,99910.40
2022-12-01T02:16:51.482Z,99910.38
2022-12-01T02:20:17.041Z,99910.91
2022-12-01T02:23:41.302Z,99912.68
2022-12-01T02:26:48.729Z,99912.59
2022-12-01T02:30:10.566Z,99909.70
2022-12-01T02:33:18.442Z,99912.70
2022-12-01T02:36:28.231Z,99907.31
2022-12-01T02:39:37.934Z,99908.48
2022-12-01T02:42:51.144Z,99902.40
2022-12-01T02:45:59.240Z,99899.52
2022-12-01T02:49:06.219Z,99897.22
2022-12-01T02:52:11.134Z,99898.10
2022-12-01T02:55:14.021Z,99894.88
2022-12-01T02:58:16.697Z,99899.31
2022-12-01T03:01:50.293Z,99897.68
2022-12-01T03:05:00.259Z,99896.81
2022-12-01T03:08:18.865Z,99893.17
2022-12-01T03:11:30.245Z,99889.09
2022-12-01T03:14:40.468Z,99892.72
2022-12-01T03:17:49.698Z,99891.21
2022-12-01T03:21:01.805Z,99883.22
2022-12-01T03:24:11.141Z,99881.75
2022-12-01T03:27:18.449Z,99878.10
2022-12-01T03:30:23.125Z,99878.77
2022-12-01T03:33:33.119Z,99874.85
2022-12-01T03:36:41.218Z,99871.20
2022-12-01T03:39:47.852Z,99872.75
2022-12-01T03:42:58.426Z,99869.55
2022-12-01T03:46:07.552Z,99866.74
2022-12-01T03:49:12.041Z,99867.39
2022-12-01T03:52:25.869Z,99870.11
2022-12-01T03:55:31.693Z,99865.72
2022-12-01T03:58:39.038Z,99863.09
2022-12-01T04:01:42.646Z,99858.96
2022-12-01T04:04:46.248Z,99859.52
2022-12-01T04:07:49.808Z,99853.77
2022-12-01T04:10:53.269Z,99852.98
2022-12-01T04:13:56.605Z,99849.16
2022-12-01T04:17:00.120Z,99847.79
2022-12-01T04:20:05.861Z,99848.17
2022-12-01T04:23:09.168Z,99844.45
2022-12-01T04:26:15.886Z,99849.54
2022-12-01T04:29:19.949Z,99848.00
2022-12-01T04:32:23.294Z,99852.52
2022-12-01T04:35:26.641Z,99855.02
2022-12-01T04:38:31.192Z,99853.89
2022-12-01T04:41:34.787Z,99854.14
2022-12-01T04:44:38.290Z,99855.06
2022-12-01T04:47:41.777Z,99855.54
2022-12-01T04:50:45.093Z,99854.79
2022-12-01T04:53:48.693Z,99855.02
2022-12-01T04:56:52.413Z,99859.78
2022-12-01T04:59:55.885Z,99862.24
2022-12-01T05:02:59.953Z,99862.59
2022-12-01T05:06:04.671Z,99862.39
2022-12-01T05:09:10.368Z,99862.64
2022-12-01T05:12:16.647Z,99863.81
2022-12-01T05:15:20.537Z,99861.10
2022-12-01T05:18:23.981Z,99865.37
2022-12-01T05:21:27.576Z,99869.61
2022-12-01T05:24:31.386Z,99868.48
2022-12-01T05:27:34.784Z,99870.70
2022-12-01T05:30:38.390Z,99872.02
2022-12-01T05:33:41.761Z,99872.53
2022-12-01T05:36:45.289Z,99870.39
2022-12-01T05:39:48.920Z,99874.30
2022-12-01T05:42:52.772Z,99872.98
2022-12-01T05:45:56.676Z,99873.41
2022-12-01T05:49:00.192Z,99872.07
2022-12-01T05:52:03.607Z,99872.77
2022-12-01T05:55:09.032Z,99874.06
2022-12-01T05:58:12.967Z,99876.67
2022-12-01T06:01:16.450Z,99879.32
2022-12-01T06:04:20.011Z,99881.55
2022-12-01T06:07:24.971Z,99887.30
2022-12-01T06:10:28.493Z,99885.61
2022-12-01T06:13:31.912Z,99885.17
2022-12-01T06:16:35.473Z,99889.02
2022-12-01T06:19:39.221Z,99890.51
2022-12-01T06:22:42.826Z,99888.97
2022-12-01T06:25:46.311Z,99890.44
2022-12-01T06:28:49.729Z,99895.51
2022-12-01T06:31:53.058Z,99892.54
2022-12-01T06:34:56.628Z,99892.68
2022-12-01T06:38:00.128Z,99895.50
2022-12-01T06:41:03.811Z,99894.64
2022-12-01T06:44:07.705Z,99893.41
2022-12-01T06:47:11.279Z,99891.27
2022-12-01T06:50:15.044Z,99893.72
2022-12-01T06:53:18.554Z,99893.23
2022-12-01T06:56:22.563Z,99890.17
2022-12-01T06:59:26.122Z,99891.81
2022-12-01T07:02:29.939Z,99893.68
2022-12-01T07:05:33.275Z,99891.43
2022-12-01T07:08:36.780Z,99886.98
2022-12-01T07:11:40.156Z,99887.20
2022-12-01T07:14:43.571Z,99890.35
2022-12-01T07:17:47.062Z,99889.23
2022-12-01T07:20:50.885Z,99891.27
2022-12-01T10:40:29.160Z,99870.02
2022-12-01T10:43:40.447Z,99862.55
2022-12-01T10:46:50.502Z,99863.77
2022-12-01T10:49:56.415Z,99862.27
2022-12-01T10:53:02.035Z,99860.31
2022-12-01T10:56:11.323Z,99855.58
2022-12-01T10:59:35.581Z,99849.05
2022-12-01T11:02:44.544Z,99853.64
2022-12-01T11:05:54.151Z,99850.30
2022-12-01T11:09:02.440Z,99847.77
2022-12-01T11:12:14.423Z,99845.86
2022-12-01T11:15:25.599Z,99841.63
2022-12-01T11:18:35.237Z,99843.06
2022-12-01T11:34:38.490Z,99838.04
2022-12-01T11:38:13.154Z,99842.38
2022-12-01T11:41:29.832Z,99841.21
2022-12-01T11:44:51.247Z,99836.47
2022-12-01T11:48:07.407Z,99837.57
2022-12-01T11:51:28.424Z,99843.45
2022-12-01T11:54:34.139Z,99845.02
2022-12-01T11:57:44.475Z,99841.45
2022-12-01T12:00:54.530Z,99840.06
2022-12-01T12:04:17.079Z,99841.51
2022-12-01T12:07:31.420Z,99843.54
2022-12-01T12:10:48.116Z,99842.95
2022-12-01T12:14:17.710Z,99842.45
2022-12-01T12:17:36.266Z,99843.14
2022-12-01T12:20:53.602Z,99842.73
2022-12-01T12:24:24.103Z,99841.65
2022-12-01T12:27:40.592Z,99846.84
2022-12-01T12:30:57.928Z,99846.63
2022-12-01T12:34:27.309Z,99845.89
2022-12-01T12:37:45.459Z,99845.77
2022-12-01T12:40:58.068Z,99841.73
2022-12-01T12:44:23.976Z,99840.35
2022-12-01T12:47:34.395Z,99840.45
2022-12-01T12:50:46.151Z,99839.64
2022-12-01T12:53:55.869Z,99840.61
2022-12-01T12:57:07.107Z,99838.33
2022-12-01T13:00:19.759Z,99834.77
2022-12-01T13:03:35.558Z,99835.06
2022-12-01T13:06:45.252Z,99834.38
2022-12-01T13:09:57.478Z,99834.88
2022-12-01T13:13:20.446Z,99841.95
2022-12-01T13:16:31.603Z,99842.94
2022-12-01T13:19:42.144Z,99845.00
2022-12-01T13:22:49.331Z,99846.58
2022-12-01T13:25:58.976Z,99848.58
2022-12-01T13:29:08.466Z,99846.17
2022-12-01T13:32:31.761Z,99847.80
2022-12-01T13:35:40.094Z,99847.27
2022-12-01T13:39:02.585Z,99849.55
2022-12-01T13:42:10.423Z,99850.40
2022-12-01T13:45:20.896Z,99847.61
2022-12-01T13:48:50.564Z,99845.48
2022-12-01T13:52:33.185Z,99850.02
2022-12-01T13:55:57.804Z,99853.42
2022-12-01T13:59:03.502Z,99855.09
2022-12-01T14:02:21.076Z,99856.10
2022-12-01T14:05:56.415Z,99857.39
2022-12-01T14:09:05.787Z,99850.96
2022-12-01T14:12:20.203Z,99849.52
2022-12-01T14:15:36.897Z,99852.33
2022-12-01T14:18:50.559Z,99853.12
2022-12-01T14:21:57.730Z,99849.66
2022-12-01T14:25:06.051Z,99849.02
2022-12-01T14:28:18.319Z,99847.27
2022-12-01T14:31:25.093Z,99846.11
2022-12-01T14:34:34.274Z,99846.77
2022-12-01T14:37:45.106Z,99845.13
2022-12-01T14:40:50.762Z,99844.02
2022-12-01T14:44:06.857Z,99848.55
2022-12-01T14:47:14.455Z,99841.95
2022-12-01T14:50:25.063Z,99842.08
2022-12-01T14:53:35.105Z,99842.11
2022-12-01T14:56:42.975Z,99837.71
2022-12-01T15:00:02.421Z,99838.70
2022-12-01T15:03:13.359Z,99839.13
2022-12-01T15:06:21.559Z,99835.16
2022-12-01T15:09:35.600Z,99835.85
2022-12-01T15:12:41.671Z,99837.69
2022-12-01T15:15:55.706Z,99837.38
2022-12-01T15:19:01.250Z,99837.13
2022-12-01T15:22:13.464Z,99841.98
2022-12-01T15:25:19.822Z,99846.14
2022-12-01T15:28:30.346Z,99853.23
2022-12-01T15:31:38.382Z,99853.09
2022-12-01T15:34:48.290Z,99851.70
2022-12-01T15:37:54.594Z,99851.31
2022-12-01T15:44:33.264Z,99847.89
2022-12-01T15:47:47.310Z,99850.64
2022-12-01T15:51:05.964Z,99849.41
2022-12-01T15:54:22.520Z,99851.05
2022-12-01T15:57:28.029Z,99849.46
2022-12-01T16:00:33.913Z,99851.94
2022-12-01T16:03:55.093Z,99852.80
2022-12-01T16:07:04.326Z,99855.95
2022-12-01T16:10:29.202Z,99856.45
2022-12-01T16:13:43.113Z,99856.25
2022-12-01T16:16:49.683Z,99856.96
2022-12-01T16:20:18.948Z,99854.20
2022-12-01T16:23:27.412Z,99856.56
2022-12-01T16:26:34.148Z,99855.48
2022-12-01T16:29:49.596Z,99857.45
2022-12-01T16:33:03.675Z,99854.73
2022-12-01T16:36:10.693Z,99853.19
2022-12-01T16:39:16.928Z,99844.82
2022-12-01T16:42:23.774Z,99844.55
2022-12-01T16:45:29.358Z,99841.66
2022-12-01T16:48:35.169Z,99839.02
2022-12-01T16:51:55.405Z,99838.21
2022-12-01T16:55:01.983Z,99838.58
2022-12-01T16:58:07.536Z,99841.96
2022-12-01T17:01:13.175Z,99842.33
2022-12-01T17:04:18.833Z,99839.81
2022-12-01T17:07:24.430Z,99842.92
2022-12-01T17:10:30.237Z,99839.55
2022-12-01T17:13:36.487Z,99839.39
2022-12-01T17:16:40.527Z,99838.73
2022-12-01T17:19:46.067Z,99836.36
2022-12-01T17:22:51.746Z,99835.98
2022-12-01T17:25:57.186Z,99835.42
2022-12-01T17:29:03.331Z,99842.91
2022-12-01T17:32:11.006Z,99847.48
2022-12-01T17:35:16.724Z,99850.55
2022-12-01T17:38:22.223Z,99851.02
2022-12-01T17:41:32.653Z,99848.54
2022-12-01T17:44:38.452Z,99847.27
2022-12-01T17:47:43.991Z,99849.27
2022-12-01T17:50:49.437Z,99850.48
2022-12-01T17:53:55.551Z,99849.21
2022-12-01T17:57:01.068Z,99846.83
2022-12-01T18:00:09.543Z,99845.57
2022-12-01T18:03:15.019Z,99846.89
2022-12-01T18:06:21.280Z,99839.83
2022-12-01T18:09:26.884Z,99839.77
2022-12-01T18:12:32.488Z,99837.46
2022-12-01T18:15:39.974Z,99841.08
2022-12-01T18:18:45.679Z,99845.16
2022-12-01T18:21:52.168Z,99850.21
2022-12-01T18:24:58.715Z,99851.88
2022-12-01T18:28:04.572Z,99849.46
2022-12-01T18:31:11.684Z,99843.85
2022-12-01T18:34:17.269Z,99842.75
2022-12-01T18:37:22.787Z,99844.53
2022-12-01T18:40:28.266Z,99844.42
2022-12-01T18:43:34.604Z,99844.11
2022-12-01T18:46:38.609Z,99843.45
2022-12-01T18:49:44.196Z,99836.42
2022-12-01T18:52:49.599Z,99834.77
2022-12-01T18:55:55.223Z,99832.77
2022-12-01T18:59:02.788Z,99835.34
2022-12-01T19:02:09.294Z,99831.37
2022-12-01T19:05:14.841Z,99826.49
2022-12-01T19:08:20.370Z,99828.34
2022-12-01T19:11:25.951Z,99828.75
2022-12-01T19:14:31.661Z,99833.67
2022-12-01T19:17:37.313Z,99831.85
2022-12-01T19:20:42.862Z,99832.93
2022-12-01T19:23:48.968Z,99830.98
2022-12-01T19:26:54.473Z,99830.63
2022-12-01T19:30:00.129Z,99831.20
2022-12-01T19:33:05.807Z,99831.44
2022-12-01T19:36:14.055Z,99828.20
2022-12-01T19:39:19.748Z,99826.19
2022-12-01T19:42:25.244Z,99823.55
2022-12-01T19:45:31.618Z,99824.47
2022-12-01T19:48:37.453Z,99828.16
2022-12-01T19:51:43.311Z,99830.91
2022-12-01T19:54:49.516Z,99829.83
2022-12-01T19:57:55.843Z,99828.23
2022-12-01T20:01:07.053Z,99827.29
2022-12-01T20:04:12.503Z,99829.56
2022-12-01T20:07:18.083Z,99827.88
2022-12-01T20:10:23.568Z,99824.02
2022-12-01T20:13:29.282Z,99821.08
2022-12-01T20:16:34.923Z,99821.48
2022-12-01T20:19:41.173Z,99819.92
2022-12-01T20:22:46.958Z,99820.77
2022-12-01T20:25:52.420Z,99822.67
2022-12-01T20:29:02.427Z,99822.87
2022-12-01T20:32:08.390Z,99823.02
2022-12-01T20:35:13.979Z,99827.45
2022-12-01T20:38:25.834Z,99826.98
2022-12-01T20:41:33.287Z,99824.95
2022-12-01T20:44:40.167Z,99826.66
2022-12-01T20:47:46.095Z,99824.37
2022-12-01T20:50:51.793Z,99824.90
2022-12-01T20:54:26.245Z,99824.88
2022-12-01T20:57:22.717Z,99821.84
2022-12-01T21:00:28.465Z,99819.86
2022-12-01T21:03:34.015Z,99820.80
2022-12-01T21:06:39.567Z,99823.28
2022-12-01T21:09:44.953Z,99823.53
2022-12-01T21:13:11.004Z,99820.65
2022-12-01T21:16:29.365Z,99820.86
2022-12-01T21:19:45.005Z,99820.77
2022-12-01T21:22:53.286Z,99821.35
2022-12-01T21:25:58.837Z,99820.48
2022-12-01T21:29:14.711Z,99819.51
2022-12-01T21:32:24.955Z,99820.31
2022-12-01T21:35:30.359Z,99820.55
2022-12-01T21:38:35.891Z,99822.04
2022-12-01T21:41:41.535Z,99816.15
2022-12-01T21:44:47.557Z,99815.13
2022-12-01T21:47:52.124Z,99813.33
2022-12-01T21:51:03.124Z,99815.31
2022-12-01T21:54:16.271Z,99816.04
2022-12-01T21:57:39.777Z,99820.14
2022-12-01T22:00:48.315Z,99816.39
2022-12-01T22:04:01.664Z,99815.58
2022-12-01T22:07:09.697Z,99813.57
2022-12-01T22:10:44.899Z,99817.35
2022-12-01T22:13:54.374Z,99815.99
2022-12-01T22:17:19.051Z,99814.23
2022-12-01T22:20:25.415Z,99815.67
2022-12-01T22:23:33.838Z,99812.16
2022-12-01T22:26:40.772Z,99810.63
2022-12-01T22:29:48.331Z,99807.65
2022-12-01T22:32:57.802Z,99807.80
2022-12-01T22:36:03.324Z,99810.70
2022-12-01T22:39:25.984Z,99806.71
2022-12-01T22:42:35.432Z,99804.77
2022-12-01T22:45:41.242Z,99802.45
2022-12-01T22:48:50.203Z,99801.88
2022-12-01T22:52:01.378Z,99798.41
2022-12-01T22:55:16.443Z,99794.69
2022-12-01T22:58:28.873Z,99798.55
2022-12-01T23:01:43.015Z,99798.48
2022-12-01T23:04:50.245Z,99794.10
2022-12-01T23:07:57.240Z,99792.92
2022-12-01T23:11:02.811Z,99795.59
2022-12-01T23:14:14.509Z,99790.89
2022-12-01T23:17:23.329Z,99791.66
2022-12-01T23:20:32.894Z,99790.07
2022-12-01T23:23:39.237Z,99790.43
2022-12-01T23:26:45.809Z,99789.09
2022-12-01T23:29:51.462Z,99792.91
2022-12-01T23:33:08.378Z,99786.92
2022-12-01T23:36:19.456Z,99787.92
2022-12-01T23:39:36.387Z,99791.04
2022-12-01T23:42:42.024Z,99790.73
2022-12-01T23:45:49.527Z,99792.52
2022-12-01T23:48:57.808Z,99791.02
2022-12-01T23:52:05.202Z,99793.10
2022-12-01T23:55:20.913Z,99788.52
2022-12-01T23:58:26.771Z,99790.10
